Time;durP1;ratioP1;P1;durP2;ratioP2;P2;SDS_P1;SDS_P2;PMS_P1;PMS_P2;Temp;Humidity;BMP_temperature;BMP_pressure;BME280_temperature;BME280_humidity;BME280_pressure;Samples;Min_cycle;Max_cycle;Signal;HPM_P1;HPM_P2
2021/10/21 00:02:18;;;;;;;28.75;4.13;;;12.30;99.90;;;;;;4971808;28;20368;-82
2021/10/21 00:04:43;;;;;;;25.17;3.80;;;12.40;99.90;;;;;;4973185;28;20050;-81
2021/10/21 00:07:10;;;;;;;26.85;3.70;;;12.40;99.90;;;;;;4954722;28;20093;-80
2021/10/21 00:09:36;;;;;;;27.02;3.80;;;12.30;99.90;;;;;;4971681;28;20051;-82
2021/10/21 00:12:04;;;;;;;19.40;3.40;;;12.40;99.90;;;;;;4990958;28;20045;-81
2021/10/21 00:14:31;;;;;;;26.52;3.95;;;12.40;99.90;;;;;;4988428;28;20045;-81
2021/10/21 00:16:57;;;;;;;26.13;3.58;;;12.40;99.90;;;;;;4984762;28;20399;-81
2021/10/21 00:19:23;;;;;;;29.35;3.83;;;12.40;99.90;;;;;;4969270;28;20334;-81
2021/10/21 00:21:48;;;;;;;26.13;4.07;;;12.40;99.90;;;;;;4983947;28;20158;-81
2021/10/21 00:24:15;;;;;;;26.70;4.10;;;12.30;99.90;;;;;;4950770;28;20057;-81
2021/10/21 00:26:41;;;;;;;22.17;3.80;;;12.40;99.90;;;;;;4969525;28;20047;-81
2021/10/21 00:29:07;;;;;;;32.55;4.43;;;12.40;99.90;;;;;;4973527;28;20046;-82
2021/10/21 00:31:32;;;;;;;23.83;3.90;;;12.40;99.90;;;;;;4971041;28;20046;-81
2021/10/21 00:33:58;;;;;;;24.10;3.67;;;12.40;99.90;;;;;;4971360;28;20387;-82
2021/10/21 00:36:24;;;;;;;29.90;4.43;;;12.40;99.90;;;;;;4961158;28;20082;-81
2021/10/21 00:38:49;;;;;;;21.58;3.88;;;12.40;99.90;;;;;;4985550;28;20043;-82
2021/10/21 00:41:15;;;;;;;25.50;4.25;;;12.40;99.90;;;;;;4986597;28;20042;-80
2021/10/21 00:43:42;;;;;;;28.95;3.67;;;12.40;99.90;;;;;;4981906;28;20045;-80
2021/10/21 00:46:10;;;;;;;21.90;3.35;;;12.40;99.90;;;;;;4988138;28;20474;-82
2021/10/21 00:48:36;;;;;;;25.27;3.45;;;12.40;99.90;;;;;;4979416;28;20387;-81
2021/10/21 00:51:06;;;;;;;22.77;3.40;;;12.40;99.90;;;;;;4974616;28;20336;-81
2021/10/21 00:53:33;;;;;;;24.42;3.80;;;12.40;99.90;;;;;;4953257;28;20117;-81
2021/10/21 00:56:01;;;;;;;24.30;4.03;;;12.40;99.90;;;;;;4970161;28;20486;-82
2021/10/21 00:58:27;;;;;;;23.45;3.97;;;12.40;99.90;;;;;;4981116;28;20030;-81
2021/10/21 01:00:54;;;;;;;34.40;4.55;;;12.50;99.90;;;;;;4955808;28;20035;-80
2021/10/21 01:03:20;;;;;;;26.95;3.92;;;12.40;99.90;;;;;;4966907;28;21574;-82
2021/10/21 01:05:46;;;;;;;28.08;4.20;;;12.50;99.90;;;;;;4969341;28;20053;-80
2021/10/21 01:08:13;;;;;;;21.20;4.20;;;12.30;99.90;;;;;;4971048;28;20089;-81
2021/10/21 01:10:38;;;;;;;27.48;4.95;;;12.30;99.90;;;;;;4969533;28;20043;-80
2021/10/21 01:13:05;;;;;;;28.98;4.65;;;12.30;99.90;;;;;;4971179;28;20054;-81
2021/10/21 01:15:31;;;;;;;26.27;5.00;;;12.30;99.90;;;;;;4952387;28;20192;-81
2021/10/21 01:17:57;;;;;;;24.67;5.72;;;12.30;99.90;;;;;;4971181;28;20212;-82
2021/10/21 01:20:25;;;;;;;29.35;5.43;;;12.30;99.90;;;;;;4971071;28;20042;-82
2021/10/21 01:22:51;;;;;;;28.75;5.93;;;12.30;99.90;;;;;;4984235;28;20042;-80
2021/10/21 01:25:18;;;;;;;22.27;6.00;;;12.70;99.90;;;;;;4971175;28;20355;-81
2021/10/21 01:27:45;;;;;;;27.50;6.25;;;12.30;99.90;;;;;;4967692;28;20042;-81
2021/10/21 01:30:25;;;;;;;30.67;7.00;;;12.30;99.90;;;;;;4952734;28;20061;-80
2021/10/21 01:32:53;;;;;;;36.05;7.30;;;12.40;99.90;;;;;;4970899;28;20054;-81
2021/10/21 01:35:19;;;;;;;26.58;7.45;;;12.40;99.90;;;;;;4978143;28;20113;-82
2021/10/21 01:37:47;;;;;;;28.55;7.65;;;12.40;99.90;;;;;;4978144;28;20125;-81
2021/10/21 01:40:17;;;;;;;29.65;7.93;;;12.40;99.90;;;;;;4982236;28;20090;-82
2021/10/21 01:42:43;;;;;;;30.88;7.97;;;12.40;99.90;;;;;;4952129;28;20053;-83
2021/10/21 01:45:22;;;;;;;28.38;7.95;;;12.40;99.90;;;;;;4991404;28;20185;-83
2021/10/21 01:47:48;;;;;;;27.00;7.75;;;12.40;99.90;;;;;;4976924;28;20450;-83
2021/10/21 01:50:14;;;;;;;31.92;9.68;;;12.40;99.90;;;;;;4973251;28;20122;-82
2021/10/21 01:52:40;;;;;;;22.10;8.52;;;12.40;99.90;;;;;;4974896;28;20038;-80
2021/10/21 01:55:08;;;;;;;21.40;7.35;;;12.40;99.90;;;;;;4975561;28;20173;-81
2021/10/21 01:57:34;;;;;;;17.25;6.60;;;12.40;99.90;;;;;;4960734;28;20046;-82
2021/10/21 02:00:00;;;;;;;21.88;7.28;;;12.40;99.90;;;;;;4970357;28;20039;-82
2021/10/21 02:02:25;;;;;;;20.60;7.20;;;12.40;99.90;;;;;;4995534;28;20363;-82
2021/10/21 02:04:51;;;;;;;21.80;7.25;;;12.40;99.90;;;;;;4953648;28;20051;-80
2021/10/21 02:07:17;;;;;;;22.70;7.25;;;12.40;99.90;;;;;;4974856;28;20117;-81
2021/10/21 02:09:42;;;;;;;25.38;7.65;;;12.50;99.90;;;;;;4988682;28;20039;-81
2021/10/21 02:12:08;;;;;;;20.20;7.10;;;12.40;99.90;;;;;;4975259;28;20050;-82
2021/10/21 02:14:33;;;;;;;24.90;7.32;;;12.40;99.90;;;;;;4980604;28;20050;-82
2021/10/21 02:17:01;;;;;;;17.17;6.35;;;12.40;99.90;;;;;;4971390;28;20394;-82
2021/10/21 02:19:27;;;;;;;21.25;7.22;;;12.40;99.90;;;;;;4976007;28;20453;-82
2021/10/21 02:21:54;;;;;;;14.65;5.13;;;12.40;99.90;;;;;;4972322;28;20081;-81
2021/10/21 02:24:19;;;;;;;19.52;5.40;;;12.40;99.90;;;;;;4973741;28;20074;-81
2021/10/21 02:26:45;;;;;;;21.00;5.97;;;12.30;99.90;;;;;;4972995;28;20043;-81
2021/10/21 02:29:11;;;;;;;12.43;4.35;;;12.30;99.90;;;;;;4989096;28;20122;-83
2021/10/21 02:31:38;;;;;;;16.92;4.30;;;12.40;99.90;;;;;;4972192;28;20055;-83
2021/10/21 02:34:03;;;;;;;20.98;4.13;;;12.20;99.90;;;;;;4965528;28;20057;-82
2021/10/21 02:36:29;;;;;;;18.77;4.53;;;12.10;99.90;;;;;;4954838;28;20038;-83
2021/10/21 02:38:55;;;;;;;13.00;3.55;;;12.30;99.90;;;;;;4953047;29;20071;-82
2021/10/21 02:41:20;;;;;;;15.00;3.28;;;12.10;99.90;;;;;;4971126;28;20410;-81
2021/10/21 02:43:46;;;;;;;15.73;3.13;;;12.00;99.90;;;;;;4990000;28;20089;-84
2021/10/21 02:46:12;;;;;;;15.70;3.30;;;12.00;99.90;;;;;;4972435;28;20086;-81
2021/10/21 02:48:40;;;;;;;15.93;3.15;;;12.00;99.90;;;;;;4956386;28;20042;-83
2021/10/21 02:51:06;;;;;;;15.52;2.70;;;11.90;99.90;;;;;;4950400;28;20315;-82
2021/10/21 02:53:32;;;;;;;29.05;3.30;;;11.80;99.90;;;;;;4984465;28;20524;-82
2021/10/21 02:55:57;;;;;;;8.57;2.10;;;11.80;99.90;;;;;;4970871;28;20050;-81
2021/10/21 02:58:23;;;;;;;7.20;1.52;;;11.80;99.90;;;;;;4972322;28;20120;-82
2021/10/21 03:00:48;;;;;;;3.55;0.93;;;11.80;99.90;;;;;;4970222;28;20410;-81
2021/10/21 03:03:14;;;;;;;3.47;1.00;;;11.90;99.90;;;;;;4972423;28;20039;-83
2021/10/21 03:05:40;;;;;;;2.65;0.90;;;11.90;99.90;;;;;;4971958;28;20054;-84
2021/10/21 03:08:06;;;;;;;3.25;0.95;;;11.90;99.90;;;;;;4972663;28;20054;-81
2021/10/21 03:10:32;;;;;;;4.85;1.20;;;11.90;99.90;;;;;;4970545;28;20042;-82
2021/10/21 03:12:57;;;;;;;8.63;0.90;;;11.80;99.90;;;;;;4987924;28;20034;-82
2021/10/21 03:15:25;;;;;;;4.60;1.05;;;11.80;99.90;;;;;;4970907;28;20454;-83
2021/10/21 03:17:51;;;;;;;4.95;0.95;;;11.80;99.90;;;;;;4968654;28;20051;-84
2021/10/21 03:20:17;;;;;;;8.65;1.10;;;11.80;99.90;;;;;;4954776;28;20081;-81
2021/10/21 03:22:43;;;;;;;7.03;1.10;;;11.70;99.90;;;;;;4970819;28;20049;-82
2021/10/21 03:25:11;;;;;;;3.65;1.00;;;11.60;99.90;;;;;;4987470;28;20051;-84
2021/10/21 03:27:37;;;;;;;5.32;1.08;;;11.60;99.90;;;;;;4989252;28;20166;-81
2021/10/21 03:30:05;;;;;;;5.32;0.88;;;11.60;99.90;;;;;;4972167;28;20054;-81
2021/10/21 03:32:31;;;;;;;8.63;1.10;;;11.60;99.90;;;;;;4973310;28;20096;-83
2021/10/21 03:34:57;;;;;;;5.00;1.00;;;11.50;99.90;;;;;;4990356;28;20490;-81
2021/10/21 03:37:23;;;;;;;8.52;1.20;;;11.50;99.90;;;;;;4974949;28;20039;-84
2021/10/21 03:39:51;;;;;;;5.00;1.10;;;11.40;99.90;;;;;;4969092;28;20035;-81
2021/10/21 03:42:18;;;;;;;9.23;1.25;;;11.30;99.90;;;;;;4983414;28;20394;-83
2021/10/21 03:44:43;;;;;;;6.57;1.05;;;11.20;99.90;;;;;;4970989;28;20074;-81
2021/10/21 03:47:09;;;;;;;5.55;1.00;;;11.20;99.90;;;;;;4954736;28;20066;-81
2021/10/21 03:49:36;;;;;;;8.43;1.17;;;11.20;99.90;;;;;;4968631;28;20035;-84
2021/10/21 03:52:03;;;;;;;7.85;1.20;;;11.10;99.90;;;;;;4969857;28;20082;-82
2021/10/21 03:54:29;;;;;;;6.88;1.33;;;11.10;99.90;;;;;;4965626;28;20082;-83
2021/10/21 03:56:55;;;;;;;7.30;1.40;;;11.00;99.90;;;;;;4971484;28;20077;-82
2021/10/21 03:59:20;;;;;;;7.32;0.95;;;11.40;99.90;;;;;;4970978;28;20122;-81
2021/10/21 04:01:47;;;;;;;4.45;0.98;;;11.20;99.90;;;;;;4971077;28;20047;-83
2021/10/21 04:04:12;;;;;;;5.30;0.90;;;11.10;99.90;;;;;;4978673;28;20085;-81
2021/10/21 04:06:38;;;;;;;6.47;1.30;;;10.90;99.90;;;;;;4967991;28;20035;-81
2021/10/21 04:09:04;;;;;;;5.43;0.80;;;10.90;99.90;;;;;;4955895;28;20356;-81
2021/10/21 04:11:30;;;;;;;6.50;1.05;;;10.90;99.90;;;;;;4971274;28;20030;-83
2021/10/21 04:13:55;;;;;;;3.83;1.00;;;10.90;99.90;;;;;;4970884;28;20035;-81
2021/10/21 04:16:21;;;;;;;11.90;1.10;;;10.80;99.90;;;;;;4970939;28;20082;-83
2021/10/21 04:18:47;;;;;;;3.05;0.82;;;10.80;99.90;;;;;;4986647;28;20031;-84
2021/10/21 04:21:12;;;;;;;7.53;1.05;;;10.80;99.90;;;;;;4984061;28;20462;-82
2021/10/21 04:23:41;;;;;;;4.85;0.90;;;10.80;99.90;;;;;;4953799;28;20042;-80
2021/10/21 04:26:06;;;;;;;7.65;0.98;;;10.80;99.90;;;;;;4971675;28;20035;-81
2021/10/21 04:28:32;;;;;;;4.57;0.90;;;11.40;99.90;;;;;;4972997;28;20397;-81
2021/10/21 04:30:58;;;;;;;5.93;0.80;;;10.70;99.90;;;;;;4972701;28;20063;-82
2021/10/21 04:33:23;;;;;;;5.43;1.00;;;10.80;99.90;;;;;;4973084;28;20053;-82
2021/10/21 04:35:49;;;;;;;7.60;1.13;;;10.80;99.90;;;;;;4957154;28;20421;-81
2021/10/21 04:38:15;;;;;;;3.05;0.80;;;10.80;99.90;;;;;;5004673;28;20093;-82
2021/10/21 04:40:40;;;;;;;3.83;0.90;;;10.80;99.90;;;;;;4958103;28;20113;-81
2021/10/21 04:43:06;;;;;;;3.70;0.82;;;11.10;99.90;;;;;;4960784;28;20050;-81
2021/10/21 04:45:32;;;;;;;6.70;0.90;;;11.00;99.90;;;;;;4971916;28;20049;-81
2021/10/21 04:47:59;;;;;;;5.88;0.82;;;11.20;99.90;;;;;;5005910;28;20154;-82
2021/10/21 04:50:25;;;;;;;3.70;0.93;;;10.90;99.90;;;;;;4956310;28;20121;-83
2021/10/21 04:52:55;;;;;;;2.78;0.93;;;11.10;99.90;;;;;;4972547;28;20066;-81
2021/10/21 04:55:22;;;;;;;6.53;0.88;;;11.00;99.90;;;;;;4971861;28;20034;-82
2021/10/21 04:57:49;;;;;;;4.90;1.25;;;10.90;99.90;;;;;;4970375;28;20051;-81
2021/10/21 05:00:16;;;;;;;3.08;1.02;;;10.90;99.90;;;;;;5006450;28;20190;-82
2021/10/21 05:02:42;;;;;;;4.05;1.20;;;11.00;99.90;;;;;;4953901;28;20383;-80
2021/10/21 05:05:08;;;;;;;8.68;1.10;;;10.90;99.90;;;;;;5004726;28;20045;-82
2021/10/21 05:07:34;;;;;;;6.72;1.10;;;11.10;99.90;;;;;;4972497;28;20050;-80
2021/10/21 05:09:59;;;;;;;8.18;1.00;;;11.10;99.90;;;;;;4976207;28;20052;-81
2021/10/21 05:12:25;;;;;;;2.55;0.50;;;11.00;99.90;;;;;;4960772;28;20466;-82
2021/10/21 05:14:52;;;;;;;10.52;1.20;;;10.90;99.90;;;;;;4974482;28;20132;-81
2021/10/21 05:17:19;;;;;;;11.02;1.23;;;10.60;99.90;;;;;;4992472;28;20090;-83
2021/10/21 05:19:52;;;;;;;8.80;1.10;;;10.30;99.90;;;;;;4993661;28;20035;-84
2021/10/21 05:22:18;;;;;;;14.45;2.10;;;10.10;99.90;;;;;;5009402;28;20120;-84
2021/10/21 05:24:44;;;;;;;10.07;1.88;;;10.30;99.90;;;;;;4961845;28;20077;-83
2021/10/21 05:27:12;;;;;;;8.82;1.40;;;10.30;99.90;;;;;;4960498;28;20046;-83
2021/10/21 05:29:37;;;;;;;12.93;1.25;;;9.80;99.90;;;;;;4961035;28;20050;-84
2021/10/21 05:32:07;;;;;;;11.75;1.33;;;9.80;99.90;;;;;;4974517;28;20516;-85
2021/10/21 05:34:34;;;;;;;9.85;1.20;;;9.90;99.90;;;;;;4971793;28;20125;-83
2021/10/21 05:37:01;;;;;;;11.57;0.90;;;9.90;99.90;;;;;;4972766;28;20061;-84
2021/10/21 05:39:28;;;;;;;7.05;0.80;;;9.90;99.90;;;;;;4974751;28;20075;-85
2021/10/21 05:41:54;;;;;;;13.73;1.50;;;9.80;99.90;;;;;;4973178;28;20058;-85
2021/10/21 05:44:19;;;;;;;12.75;1.27;;;9.80;99.90;;;;;;4971775;28;20047;-84
2021/10/21 05:46:48;;;;;;;12.73;1.80;;;9.80;99.90;;;;;;4973881;28;20126;-81
2021/10/21 05:49:17;;;;;;;7.03;1.08;;;9.80;99.90;;;;;;4972938;28;20101;-82
2021/10/21 05:51:43;;;;;;;10.10;1.35;;;9.80;99.90;;;;;;4972089;28;20438;-79
2021/10/21 05:54:08;;;;;;;11.55;1.38;;;9.80;99.90;;;;;;4972522;28;20078;-79
2021/10/21 05:56:34;;;;;;;13.07;1.50;;;9.90;99.90;;;;;;4953776;28;20471;-83
2021/10/21 05:58:59;;;;;;;17.60;1.65;;;9.80;99.90;;;;;;4989684;28;20047;-85
2021/10/21 06:01:25;;;;;;;17.05;1.60;;;9.90;99.90;;;;;;4972853;28;20094;-83
2021/10/21 06:03:51;;;;;;;12.80;1.70;;;9.90;99.90;;;;;;4973488;28;20069;-81
2021/10/21 06:06:18;;;;;;;11.35;1.63;;;9.80;99.90;;;;;;4971534;28;20070;-82
2021/10/21 06:08:44;;;;;;;15.93;2.60;;;9.90;99.90;;;;;;4980931;28;20494;-85
2021/10/21 06:11:10;;;;;;;13.25;1.75;;;9.80;99.90;;;;;;4973198;28;20035;-84
2021/10/21 06:13:36;;;;;;;14.13;1.73;;;10.10;99.90;;;;;;4956982;28;20039;-82
2021/10/21 06:16:03;;;;;;;10.30;1.30;;;10.00;99.90;;;;;;4972699;28;20043;-83
2021/10/21 06:18:30;;;;;;;15.05;1.60;;;9.90;99.90;;;;;;4973355;28;20039;-85
2021/10/21 06:20:55;;;;;;;12.80;1.50;;;9.90;99.90;;;;;;4983988;28;20105;-85
2021/10/21 06:23:21;;;;;;;13.25;1.25;;;9.90;99.90;;;;;;4972824;28;20047;-85
2021/10/21 06:25:47;;;;;;;19.55;1.70;;;9.90;99.90;;;;;;4972281;28;20043;-85
2021/10/21 06:28:14;;;;;;;10.70;1.40;;;9.90;99.90;;;;;;4986346;28;20146;-85
2021/10/21 06:30:40;;;;;;;11.93;1.45;;;9.90;99.90;;;;;;4972834;28;20035;-83
2021/10/21 06:33:08;;;;;;;16.05;1.38;;;10.10;99.90;;;;;;5005337;28;20350;-84
2021/10/21 06:35:34;;;;;;;16.75;1.90;;;9.90;99.90;;;;;;4959782;28;20101;-82
2021/10/21 06:38:01;;;;;;;12.27;1.45;;;10.40;99.90;;;;;;4989554;28;20042;-83
2021/10/21 06:40:29;;;;;;;11.30;1.70;;;10.00;99.90;;;;;;4957571;28;20481;-83
2021/10/21 06:43:01;;;;;;;15.63;1.60;;;10.70;99.90;;;;;;4976019;28;20045;-81
2021/10/21 06:45:30;;;;;;;25.77;2.00;;;10.00;99.90;;;;;;4959567;28;20051;-84
2021/10/21 06:47:55;;;;;;;22.08;2.17;;;10.70;99.90;;;;;;4975299;28;20358;-85
2021/10/21 06:50:21;;;;;;;19.58;1.83;;;10.50;99.90;;;;;;4973403;28;20052;-84
2021/10/21 06:52:47;;;;;;;13.93;1.88;;;10.10;99.90;;;;;;4975472;28;20390;-84
2021/10/21 06:55:14;;;;;;;17.40;1.83;;;10.10;99.90;;;;;;4976673;28;20129;-84
2021/10/21 06:57:50;;;;;;;13.98;2.10;;;10.20;99.90;;;;;;4976947;28;20089;-83
2021/10/21 07:00:17;;;;;;;14.00;1.85;;;10.10;99.90;;;;;;4977269;28;20133;-83
2021/10/21 07:02:43;;;;;;;14.57;2.38;;;10.10;99.90;;;;;;4959635;28;20050;-84
2021/10/21 07:05:10;;;;;;;23.60;2.60;;;10.20;99.90;;;;;;4976461;28;20121;-84
2021/10/21 07:07:36;;;;;;;19.88;2.80;;;10.30;99.90;;;;;;4975158;28;20402;-82
2021/10/21 07:10:05;;;;;;;17.13;2.22;;;10.30;99.90;;;;;;4977087;28;20184;-83
2021/10/21 07:12:32;;;;;;;17.98;1.58;;;10.30;99.90;;;;;;4975933;28;20043;-84
2021/10/21 07:14:57;;;;;;;13.98;1.55;;;10.30;99.90;;;;;;4973720;28;20204;-83
2021/10/21 07:17:23;;;;;;;15.82;1.75;;;10.90;99.90;;;;;;4992538;28;20228;-84
2021/10/21 07:19:49;;;;;;;10.32;1.42;;;10.30;99.90;;;;;;4975376;28;20054;-83
2021/10/21 07:22:16;;;;;;;12.75;1.90;;;10.40;99.90;;;;;;4959520;28;20127;-84
2021/10/21 07:24:43;;;;;;;14.32;1.67;;;10.40;99.90;;;;;;4959657;28;20050;-84
2021/10/21 07:27:10;;;;;;;22.23;2.30;;;10.50;99.90;;;;;;4975237;28;20050;-84
2021/10/21 07:29:36;;;;;;;11.32;1.50;;;10.50;99.90;;;;;;4958656;28;20188;-85
2021/10/21 07:32:03;;;;;;;11.07;1.55;;;10.50;99.90;;;;;;4976547;28;20166;-86
2021/10/21 07:34:29;;;;;;;14.02;1.80;;;10.50;99.90;;;;;;4974730;28;20043;-84
2021/10/21 07:37:00;;;;;;;13.43;1.70;;;10.60;99.90;;;;;;4971457;28;20058;-84
2021/10/21 07:39:26;;;;;;;15.93;1.98;;;10.50;99.90;;;;;;4971414;28;20050;-82
2021/10/21 07:41:52;;;;;;;13.10;1.58;;;10.60;99.90;;;;;;4971692;28;20367;-82
2021/10/21 07:44:19;;;;;;;8.13;1.52;;;10.70;99.90;;;;;;4976005;28;20062;-81
2021/10/21 07:46:46;;;;;;;15.68;2.17;;;10.70;99.90;;;;;;4971781;28;20441;-82
2021/10/21 07:49:15;;;;;;;11.70;1.55;;;10.80;99.90;;;;;;4984616;28;20042;-81
2021/10/21 07:51:42;;;;;;;15.55;1.80;;;10.90;99.90;;;;;;4970856;28;20066;-82
2021/10/21 07:54:08;;;;;;;10.40;1.35;;;10.80;99.90;;;;;;4972244;28;20031;-82
2021/10/21 07:56:33;;;;;;;14.48;1.90;;;10.80;99.90;;;;;;4972879;28;20046;-82
2021/10/21 07:59:05;;;;;;;12.65;2.17;;;10.80;99.90;;;;;;4973272;28;20117;-83
2021/10/21 08:01:31;;;;;;;8.88;1.27;;;10.80;99.90;;;;;;4972722;28;20093;-83
2021/10/21 08:03:59;;;;;;;12.23;1.40;;;10.70;99.90;;;;;;4973121;28;20137;-82
2021/10/21 08:06:24;;;;;;;4.82;0.75;;;10.90;99.90;;;;;;4971770;28;20046;-81
2021/10/21 08:08:50;;;;;;;9.40;1.33;;;10.30;99.90;;;;;;4972568;28;20054;-82
2021/10/21 08:11:16;;;;;;;13.05;1.17;;;11.50;99.90;;;;;;4973111;28;20106;-85
2021/10/21 08:13:42;;;;;;;6.22;0.82;;;10.90;99.90;;;;;;4961889;28;20093;-83
2021/10/21 08:16:07;;;;;;;6.95;1.30;;;10.90;99.90;;;;;;4962468;28;20097;-84
2021/10/21 08:18:36;;;;;;;3.40;0.70;;;11.20;99.90;;;;;;4968811;28;20109;-84
2021/10/21 08:21:24;;;;;;;8.25;1.00;;;10.50;99.90;;;;;;4955748;28;20065;-83
2021/10/21 08:23:54;;;;;;;7.35;1.00;;;10.30;99.90;;;;;;4987900;28;20050;-83
2021/10/21 08:26:20;;;;;;;3.97;0.77;;;10.70;99.90;;;;;;4987019;28;20087;-81
2021/10/21 08:28:47;;;;;;;6.40;0.98;;;10.50;99.90;;;;;;4952649;28;20521;-81
2021/10/21 08:31:14;;;;;;;9.45;1.45;;;10.70;99.90;;;;;;4971569;28;20144;-85
2021/10/21 08:33:44;;;;;;;9.65;1.15;;;10.20;99.90;;;;;;4971410;28;20126;-84
2021/10/21 08:36:16;;;;;;;9.48;1.67;;;10.40;99.90;;;;;;4954642;28;20042;-81
2021/10/21 08:38:45;;;;;;;9.07;1.58;;;10.30;99.90;;;;;;4969634;28;20090;-80
2021/10/21 08:41:13;;;;;;;9.10;1.50;;;10.30;99.90;;;;;;4970427;28;20039;-78
2021/10/21 08:43:39;;;;;;;9.05;1.13;;;10.60;99.90;;;;;;4970707;28;20517;-80
2021/10/21 08:46:05;;;;;;;12.38;1.55;;;10.20;99.90;;;;;;4986450;28;20046;-77
2021/10/21 08:48:41;;;;;;;10.85;1.35;;;10.20;99.90;;;;;;4969735;28;20065;-78
2021/10/21 08:51:09;;;;;;;12.00;1.02;;;10.20;99.90;;;;;;4954791;28;20074;-81
2021/10/21 08:53:35;;;;;;;9.38;1.17;;;10.30;99.90;;;;;;4953992;28;20051;-79
2021/10/21 08:56:00;;;;;;;12.85;1.50;;;10.30;99.90;;;;;;4968403;28;20050;-79
2021/10/21 08:58:27;;;;;;;13.00;1.40;;;10.30;99.90;;;;;;4971656;28;20070;-79
2021/10/21 09:03:57;;;;;;;5.97;0.90;;;10.40;99.90;;;;;;4990941;28;20057;-80
2021/10/21 09:08:58;;;;;;;11.02;1.45;;;10.60;99.90;;;;;;4961868;28;20189;-79
2021/10/21 09:11:24;;;;;;;9.52;1.48;;;10.70;99.90;;;;;;4954024;28;20350;-79
2021/10/21 09:14:13;;;;;;;9.65;1.20;;;10.70;99.90;;;;;;4985163;28;20054;-82
2021/10/21 09:16:57;;;;;;;13.38;1.65;;;10.80;99.90;;;;;;4969187;28;20043;-80
2021/10/21 09:19:27;;;;;;;11.30;1.50;;;10.90;99.90;;;;;;4966230;28;20046;-80
2021/10/21 09:21:56;;;;;;;7.10;1.38;;;11.00;99.90;;;;;;4968571;28;20100;-81
2021/10/21 09:24:22;;;;;;;15.27;1.90;;;11.10;99.90;;;;;;4986193;28;20615;-79
2021/10/21 09:27:10;;;;;;;13.80;1.45;;;11.10;99.90;;;;;;4982807;28;20493;-80
2021/10/21 09:29:53;;;;;;;15.68;1.73;;;11.20;99.90;;;;;;4972393;28;20129;-79
2021/10/21 09:32:28;;;;;;;9.30;1.50;;;11.20;99.90;;;;;;4988438;28;20078;-79
2021/10/21 09:34:58;;;;;;;;;;;11.30;99.90;;;;;;4978776;28;20047;-80
2021/10/21 09:37:26;;;;;;;14.27;1.70;;;11.50;99.90;;;;;;4970160;28;19918;-78
2021/10/21 09:39:55;;;;;;;12.70;1.50;;;11.60;99.90;;;;;;4971356;28;20589;-79
2021/10/21 09:42:30;;;;;;;13.13;1.63;;;11.70;99.90;;;;;;4968656;28;20517;-79
2021/10/21 09:45:13;;;;;;;14.68;2.17;;;11.90;99.90;;;;;;4985046;28;20054;-79
2021/10/21 09:47:53;;;;;;;14.23;1.90;;;12.00;99.90;;;;;;4968606;28;20118;-79
2021/10/21 09:50:40;;;;;;;12.65;2.38;;;12.10;99.90;;;;;;4950236;28;20121;-79
2021/10/21 09:53:22;;;;;;;17.10;2.00;;;12.10;99.90;;;;;;4951315;28;20117;-79
2021/10/21 09:55:54;;;;;;;12.20;2.45;;;12.10;99.90;;;;;;4974187;28;20087;-79
2021/10/21 09:58:40;;;;;;;16.83;2.20;;;12.00;99.90;;;;;;4974745;28;20550;-79
2021/10/21 10:01:09;;;;;;;11.07;1.77;;;12.00;99.90;;;;;;4974637;28;20067;-79
2021/10/21 10:03:37;;;;;;;11.50;1.80;;;12.00;99.90;;;;;;4974945;28;20039;-80
2021/10/21 10:06:03;;;;;;;19.35;2.15;;;12.00;99.90;;;;;;4971505;28;20420;-80
2021/10/21 10:08:32;;;;;;;10.30;2.25;;;11.90;99.90;;;;;;4972789;28;20047;-81
2021/10/21 10:11:00;;;;;;;9.38;1.73;;;11.80;99.90;;;;;;4971971;28;20391;-81
2021/10/21 10:13:27;;;;;;;12.23;1.83;;;11.80;99.90;;;;;;4973474;28;20054;-81
2021/10/21 10:15:54;;;;;;;12.98;1.98;;;11.70;99.90;;;;;;4954675;28;20046;-82
2021/10/21 10:18:26;;;;;;;12.20;2.05;;;11.70;99.90;;;;;;4965303;28;20125;-81
2021/10/21 10:21:21;;;;;;;12.23;2.03;;;11.60;99.90;;;;;;4970521;28;20046;-80
2021/10/21 10:23:52;;;;;;;;;;;11.60;99.90;;;;;;4966854;28;20057;-83
2021/10/21 10:26:45;;;;;;;11.40;1.60;;;11.50;99.90;;;;;;4986449;28;19966;-80
2021/10/21 10:29:17;;;;;;;12.13;1.58;;;11.40;99.90;;;;;;4971726;28;20049;-80
2021/10/21 10:31:48;;;;;;;9.93;1.48;;;11.50;99.90;;;;;;4969589;28;20051;-80
2021/10/21 10:34:32;;;;;;;10.98;1.73;;;11.60;99.90;;;;;;4986829;28;20053;-79
2021/10/21 10:37:13;;;;;;;21.05;2.08;;;11.40;99.90;;;;;;4986723;28;20406;-80
2021/10/21 10:39:51;;;;;;;14.73;2.00;;;11.40;99.90;;;;;;4967921;28;20054;-79
2021/10/21 10:42:37;;;;;;;9.32;1.45;;;11.30;99.90;;;;;;4966315;28;20055;-81
2021/10/21 10:45:08;;;;;;;16.02;1.95;;;11.30;99.90;;;;;;4974350;28;20058;-79
2021/10/21 10:47:47;;;;;;;11.30;1.70;;;11.20;99.90;;;;;;4973867;28;20094;-79
2021/10/21 10:50:38;;;;;;;13.02;1.75;;;11.10;99.90;;;;;;4973896;28;20800;-77
2021/10/21 10:53:07;;;;;;;11.55;1.77;;;11.00;99.90;;;;;;4972540;28;20058;-81
2021/10/21 10:55:47;;;;;;;17.90;2.35;;;11.00;99.90;;;;;;4972032;28;20055;-79
2021/10/21 10:58:15;;;;;;;12.55;1.73;;;11.00;99.90;;;;;;4956127;28;20031;-76
2021/10/21 11:00:49;;;;;;;11.70;1.80;;;11.00;99.90;;;;;;4985038;28;20074;-78
2021/10/21 11:03:29;;;;;;;9.63;1.90;;;10.90;99.90;;;;;;4987345;28;20057;-79
2021/10/21 11:05:56;;;;;;;14.00;2.00;;;10.90;99.90;;;;;;4971717;28;20524;-79
2021/10/21 11:08:59;;;;;;;18.42;2.45;;;10.80;99.90;;;;;;4971924;28;20051;-79
2021/10/21 11:11:42;;;;;;;11.80;1.90;;;10.80;99.90;;;;;;4971479;28;20063;-80
2021/10/21 11:14:19;;;;;;;12.13;2.00;;;10.90;99.90;;;;;;4971398;28;20358;-79
2021/10/21 11:16:54;;;;;;;6.57;1.40;;;10.90;99.90;;;;;;4966485;28;20554;-76
2021/10/21 11:19:47;;;;;;;6.68;1.60;;;10.80;99.90;;;;;;4968538;28;20169;-78
2021/10/21 11:22:19;;;;;;;12.57;1.88;;;10.90;99.90;;;;;;4966251;28;20094;-79
2021/10/21 11:24:45;;;;;;;15.85;2.17;;;10.80;99.90;;;;;;4972098;28;20109;-79
2021/10/21 11:27:12;;;;;;;12.40;1.90;;;10.80;99.90;;;;;;4970997;28;20422;-79
2021/10/21 11:29:39;;;;;;;8.05;1.80;;;10.80;99.90;;;;;;4954530;28;20065;-78
2021/10/21 11:32:05;;;;;;;8.57;1.83;;;10.70;99.90;;;;;;4981654;28;20125;-78
2021/10/21 11:34:32;;;;;;;9.43;1.77;;;10.50;99.90;;;;;;4975055;28;20057;-78
2021/10/21 11:36:57;;;;;;;9.35;1.73;;;10.50;99.90;;;;;;4990618;28;20050;-79
2021/10/21 11:39:49;;;;;;;13.35;1.90;;;10.40;99.90;;;;;;4976185;28;20061;-78
2021/10/21 11:42:15;;;;;;;13.73;2.00;;;10.40;99.90;;;;;;4985518;28;20054;-78
2021/10/21 11:44:41;;;;;;;15.73;2.78;;;10.40;99.90;;;;;;4976870;28;20057;-77
2021/10/21 11:47:07;;;;;;;14.18;1.75;;;10.50;99.90;;;;;;4976703;28;20142;-77
2021/10/21 11:49:35;;;;;;;13.70;2.17;;;10.40;99.90;;;;;;4970078;28;20370;-77
2021/10/21 11:52:10;;;;;;;13.05;1.95;;;10.40;99.90;;;;;;4984017;28;20104;-76
2021/10/21 11:54:37;;;;;;;9.48;1.50;;;10.50;99.90;;;;;;4974125;28;20043;-79
2021/10/21 11:57:04;;;;;;;10.70;1.35;;;10.50;99.90;;;;;;4957234;28;20092;-76
2021/10/21 11:59:41;;;;;;;9.80;1.92;;;10.50;99.90;;;;;;4947324;28;20130;-78
2021/10/21 12:02:11;;;;;;;5.80;1.20;;;10.40;99.90;;;;;;4969853;28;20480;-77
2021/10/21 12:04:42;;;;;;;9.50;1.10;;;10.20;99.90;;;;;;4946193;28;20394;-78
2021/10/21 12:07:09;;;;;;;4.95;0.80;;;9.90;99.90;;;;;;4973833;28;20034;-78
2021/10/21 12:09:36;;;;;;;7.18;1.25;;;9.60;99.90;;;;;;5004262;28;20100;-78
2021/10/21 12:12:05;;;;;;;10.23;1.40;;;9.60;99.90;;;;;;4963484;28;20141;-77
2021/10/21 12:14:35;;;;;;;7.80;1.20;;;9.50;99.90;;;;;;4973204;28;20051;-77
2021/10/21 12:17:01;;;;;;;10.50;1.35;;;9.60;99.90;;;;;;4971654;28;20493;-76
2021/10/21 12:19:27;;;;;;;9.82;1.35;;;9.60;99.90;;;;;;4973282;28;20113;-76
2021/10/21 12:22:13;;;;;;;12.57;1.45;;;9.60;99.90;;;;;;4976352;28;20054;-77
2021/10/21 12:24:42;;;;;;;7.38;1.10;;;9.60;99.90;;;;;;4961179;28;20144;-76
2021/10/21 12:27:08;;;;;;;9.60;1.50;;;9.60;99.90;;;;;;4956390;28;20039;-76
2021/10/21 12:29:44;;;;;;;11.02;1.38;;;9.70;99.90;;;;;;4943535;28;20061;-76
2021/10/21 12:32:15;;;;;;;12.20;1.52;;;9.80;99.90;;;;;;4969300;28;20427;-77
2021/10/21 12:34:41;;;;;;;10.38;1.40;;;9.90;99.90;;;;;;4973172;28;20057;-77
2021/10/21 12:37:22;;;;;;;14.13;1.92;;;10.00;99.90;;;;;;4967437;28;20367;-76
2021/10/21 12:39:48;;;;;;;11.50;1.65;;;10.20;99.90;;;;;;4956407;28;20053;-75
2021/10/21 12:42:23;;;;;;;8.05;1.80;;;10.20;99.90;;;;;;4973841;28;20042;-77
2021/10/21 12:44:59;;;;;;;12.95;2.10;;;10.30;99.90;;;;;;4973458;28;20461;-76
2021/10/21 12:47:31;;;;;;;9.90;2.42;;;10.30;99.90;;;;;;4970939;28;20473;-76
2021/10/21 12:50:05;;;;;;;16.30;1.60;;;10.30;99.90;;;;;;4970511;28;20596;-77
2021/10/21 12:52:32;;;;;;;6.82;1.30;;;10.40;99.90;;;;;;4993650;28;20055;-76
2021/10/21 12:55:16;;;;;;;7.80;1.45;;;10.50;99.90;;;;;;4990748;28;20384;-77
2021/10/21 12:57:54;;;;;;;10.43;1.58;;;10.30;99.90;;;;;;4952489;28;20092;-79